sensor_id;sensor_type;location;lat;lon;timestamp;P1;durP1;ratioP1;P2;durP2;ratioP2
76731;SDS011;65656;51.130;13.658;2023-03-21T00:02:22;21.60;;;19.33;;
76731;SDS011;65656;51.130;13.658;2023-03-21T00:06:24;24.08;;;21.85;;
76731;SDS011;65656;51.130;13.658;2023-03-21T00:10:25;24.20;;;21.75;;
76731;SDS011;65656;51.130;13.658;2023-03-21T00:14:45;22.20;;;19.50;;
76731;SDS011;65656;51.130;13.658;2023-03-21T00:18:47;23.75;;;18.63;;
76731;SDS011;65656;51.130;13.658;2023-03-21T00:22:50;23.90;;;21.40;;
76731;SDS011;65656;51.130;13.658;2023-03-21T00:26:51;23.25;;;20.02;;
76731;SDS011;65656;51.130;13.658;2023-03-21T00:30:57;23.98;;;20.35;;
76731;SDS011;65656;51.130;13.658;2023-03-21T00:34:59;24.35;;;18.50;;
76731;SDS011;65656;51.130;13.658;2023-03-21T00:39:20;31.20;;;28.08;;
76731;SDS011;65656;51.130;13.658;2023-03-21T00:43:22;30.08;;;21.58;;
76731;SDS011;65656;51.130;13.658;2023-03-21T00:47:25;26.90;;;20.20;;
76731;SDS011;65656;51.130;13.658;2023-03-21T00:51:26;30.40;;;26.17;;
76731;SDS011;65656;51.130;13.658;2023-03-21T00:55:28;30.33;;;26.92;;
76731;SDS011;65656;51.130;13.658;2023-03-21T00:59:29;30.88;;;21.23;;
76731;SDS011;65656;51.130;13.658;2023-03-21T01:03:33;30.90;;;21.48;;
76731;SDS011;65656;51.130;13.658;2023-03-21T01:07:34;31.05;;;23.50;;
76731;SDS011;65656;51.130;13.658;2023-03-21T01:11:36;30.65;;;22.02;;
76731;SDS011;65656;51.130;13.658;2023-03-21T01:15:41;30.67;;;24.40;;
76731;SDS011;65656;51.130;13.658;2023-03-21T01:19:45;29.25;;;20.45;;
76731;SDS011;65656;51.130;13.658;2023-03-21T01:23:52;33.78;;;26.60;;
76731;SDS011;65656;51.130;13.658;2023-03-21T01:27:54;32.45;;;19.05;;
76731;SDS011;65656;51.130;13.658;2023-03-21T01:31:55;32.13;;;21.50;;
76731;SDS011;65656;51.130;13.658;2023-03-21T01:35:58;25.52;;;18.15;;
76731;SDS011;65656;51.130;13.658;2023-03-21T01:40:13;27.50;;;21.63;;
76731;SDS011;65656;51.130;13.658;2023-03-21T01:44:19;27.35;;;22.98;;
76731;SDS011;65656;51.130;13.658;2023-03-21T01:48:20;30.20;;;20.58;;
76731;SDS011;65656;51.130;13.658;2023-03-21T01:52:26;27.77;;;21.38;;
76731;SDS011;65656;51.130;13.658;2023-03-21T01:56:38;37.50;;;33.85;;
76731;SDS011;65656;51.130;13.658;2023-03-21T02:00:40;27.90;;;20.65;;
76731;SDS011;65656;51.130;13.658;2023-03-21T02:04:42;28.45;;;22.02;;
76731;SDS011;65656;51.130;13.658;2023-03-21T02:08:45;28.80;;;19.08;;
76731;SDS011;65656;51.130;13.658;2023-03-21T02:12:46;30.20;;;23.70;;
76731;SDS011;65656;51.130;13.658;2023-03-21T02:16:50;37.83;;;32.45;;
76731;SDS011;65656;51.130;13.658;2023-03-21T02:21:01;29.25;;;23.73;;
76731;SDS011;65656;51.130;13.658;2023-03-21T02:25:24;31.35;;;20.45;;
76731;SDS011;65656;51.130;13.658;2023-03-21T02:38:42;34.55;;;30.75;;
76731;SDS011;65656;51.130;13.658;2023-03-21T02:42:54;38.13;;;27.65;;
76731;SDS011;65656;51.130;13.658;2023-03-21T02:47:06;44.17;;;36.03;;
76731;SDS011;65656;51.130;13.658;2023-03-21T02:51:12;37.90;;;29.85;;
76731;SDS011;65656;51.130;13.658;2023-03-21T02:55:21;60.05;;;54.60;;
76731;SDS011;65656;51.130;13.658;2023-03-21T02:59:25;33.47;;;25.65;;
76731;SDS011;65656;51.130;13.658;2023-03-21T03:03:27;35.58;;;27.05;;
76731;SDS011;65656;51.130;13.658;2023-03-21T03:07:36;38.50;;;34.45;;
76731;SDS011;65656;51.130;13.658;2023-03-21T03:11:43;37.08;;;26.83;;
76731;SDS011;65656;51.130;13.658;2023-03-21T03:15:49;35.40;;;28.50;;
76731;SDS011;65656;51.130;13.658;2023-03-21T03:20:01;44.55;;;40.08;;
76731;SDS011;65656;51.130;13.658;2023-03-21T03:24:19;35.40;;;26.83;;
76731;SDS011;65656;51.130;13.658;2023-03-21T03:28:29;38.90;;;34.47;;
76731;SDS011;65656;51.130;13.658;2023-03-21T03:32:33;38.45;;;27.60;;
76731;SDS011;65656;51.130;13.658;2023-03-21T03:36:39;33.95;;;24.92;;
76731;SDS011;65656;51.130;13.658;2023-03-21T03:40:44;35.72;;;26.20;;
76731;SDS011;65656;51.130;13.658;2023-03-21T03:44:50;33.92;;;26.33;;
76731;SDS011;65656;51.130;13.658;2023-03-21T03:48:53;32.13;;;23.55;;
76731;SDS011;65656;51.130;13.658;2023-03-21T03:52:58;33.95;;;24.33;;
76731;SDS011;65656;51.130;13.658;2023-03-21T03:57:16;35.00;;;26.50;;
76731;SDS011;65656;51.130;13.658;2023-03-21T04:01:19;32.03;;;24.13;;
76731;SDS011;65656;51.130;13.658;2023-03-21T04:05:20;34.47;;;26.38;;
76731;SDS011;65656;51.130;13.658;2023-03-21T04:09:22;35.00;;;28.83;;
76731;SDS011;65656;51.130;13.658;2023-03-21T04:13:43;33.45;;;24.50;;
76731;SDS011;65656;51.130;13.658;2023-03-21T04:17:45;32.47;;;22.60;;
76731;SDS011;65656;51.130;13.658;2023-03-21T04:21:47;44.20;;;39.78;;
76731;SDS011;65656;51.130;13.658;2023-03-21T04:25:48;33.00;;;25.42;;
76731;SDS011;65656;51.130;13.658;2023-03-21T04:29:57;37.50;;;25.48;;
76731;SDS011;65656;51.130;13.658;2023-03-21T04:34:00;33.15;;;27.02;;
76731;SDS011;65656;51.130;13.658;2023-03-21T04:38:03;33.78;;;24.20;;
76731;SDS011;65656;51.130;13.658;2023-03-21T04:42:05;36.13;;;27.08;;
76731;SDS011;65656;51.130;13.658;2023-03-21T04:46:06;35.05;;;29.02;;
76731;SDS011;65656;51.130;13.658;2023-03-21T04:50:10;39.33;;;35.15;;
76731;SDS011;65656;51.130;13.658;2023-03-21T04:54:12;36.65;;;26.38;;
76731;SDS011;65656;51.130;13.658;2023-03-21T04:58:13;37.70;;;28.88;;
76731;SDS011;65656;51.130;13.658;2023-03-21T05:02:15;37.80;;;23.73;;
76731;SDS011;65656;51.130;13.658;2023-03-21T05:06:18;38.95;;;31.52;;
76731;SDS011;65656;51.130;13.658;2023-03-21T05:10:19;38.85;;;29.52;;
76731;SDS011;65656;51.130;13.658;2023-03-21T05:14:22;35.97;;;27.23;;
76731;SDS011;65656;51.130;13.658;2023-03-21T05:18:24;34.80;;;28.17;;
76731;SDS011;65656;51.130;13.658;2023-03-21T05:22:27;35.25;;;25.08;;
76731;SDS011;65656;51.130;13.658;2023-03-21T05:26:29;37.92;;;29.92;;
76731;SDS011;65656;51.130;13.658;2023-03-21T05:30:30;30.67;;;24.15;;
76731;SDS011;65656;51.130;13.658;2023-03-21T05:34:33;26.08;;;18.92;;
76731;SDS011;65656;51.130;13.658;2023-03-21T05:38:36;25.10;;;19.38;;
76731;SDS011;65656;51.130;13.658;2023-03-21T05:42:38;25.45;;;22.40;;
76731;SDS011;65656;51.130;13.658;2023-03-21T05:46:40;21.90;;;17.08;;
76731;SDS011;65656;51.130;13.658;2023-03-21T05:50:42;21.75;;;19.13;;
76731;SDS011;65656;51.130;13.658;2023-03-21T05:54:45;23.13;;;16.88;;
76731;SDS011;65656;51.130;13.658;2023-03-21T05:58:46;19.75;;;14.05;;
76731;SDS011;65656;51.130;13.658;2023-03-21T06:02:48;20.98;;;18.67;;
76731;SDS011;65656;51.130;13.658;2023-03-21T06:06:49;39.50;;;36.47;;
76731;SDS011;65656;51.130;13.658;2023-03-21T06:10:52;22.50;;;20.25;;
76731;SDS011;65656;51.130;13.658;2023-03-21T06:14:54;21.38;;;19.23;;
76731;SDS011;65656;51.130;13.658;2023-03-21T06:18:55;23.77;;;21.42;;
76731;SDS011;65656;51.130;13.658;2023-03-21T06:22:57;29.77;;;26.80;;
76731;SDS011;65656;51.130;13.658;2023-03-21T06:26:59;16.80;;;15.18;;
76731;SDS011;65656;51.130;13.658;2023-03-21T06:31:04;17.13;;;13.20;;
76731;SDS011;65656;51.130;13.658;2023-03-21T06:35:06;15.88;;;13.10;;
76731;SDS011;65656;51.130;13.658;2023-03-21T06:39:08;16.65;;;13.30;;
76731;SDS011;65656;51.130;13.658;2023-03-21T06:43:10;15.00;;;11.15;;
76731;SDS011;65656;51.130;13.658;2023-03-21T06:47:12;19.08;;;16.42;;
76731;SDS011;65656;51.130;13.658;2023-03-21T06:51:14;15.93;;;14.30;;
76731;SDS011;65656;51.130;13.658;2023-03-21T06:55:16;18.80;;;17.17;;
76731;SDS011;65656;51.130;13.658;2023-03-21T06:59:19;12.98;;;10.95;;
76731;SDS011;65656;51.130;13.658;2023-03-21T07:03:20;17.50;;;15.77;;
76731;SDS011;65656;51.130;13.658;2023-03-21T07:07:23;14.57;;;11.15;;
76731;SDS011;65656;51.130;13.658;2023-03-21T07:11:25;14.30;;;12.85;;
76731;SDS011;65656;51.130;13.658;2023-03-21T07:15:28;14.48;;;12.32;;
76731;SDS011;65656;51.130;13.658;2023-03-21T07:19:29;13.43;;;11.48;;
76731;SDS011;65656;51.130;13.658;2023-03-21T07:23:31;19.52;;;17.23;;
76731;SDS011;65656;51.130;13.658;2023-03-21T07:27:32;16.33;;;14.52;;
76731;SDS011;65656;51.130;13.658;2023-03-21T07:31:35;18.15;;;16.50;;
76731;SDS011;65656;51.130;13.658;2023-03-21T07:35:36;20.98;;;18.77;;
76731;SDS011;65656;51.130;13.658;2023-03-21T07:39:39;18.48;;;14.73;;
76731;SDS011;65656;51.130;13.658;2023-03-21T07:43:40;18.80;;;14.60;;
76731;SDS011;65656;51.130;13.658;2023-03-21T07:47:43;16.98;;;14.85;;
76731;SDS011;65656;51.130;13.658;2023-03-21T07:51:44;15.32;;;13.05;;
76731;SDS011;65656;51.130;13.658;2023-03-21T07:55:48;14.90;;;11.52;;
76731;SDS011;65656;51.130;13.658;2023-03-21T07:59:50;13.52;;;11.90;;
76731;SDS011;65656;51.130;13.658;2023-03-21T08:03:53;15.63;;;11.90;;
76731;SDS011;65656;51.130;13.658;2023-03-21T08:07:55;17.92;;;15.00;;
76731;SDS011;65656;51.130;13.658;2023-03-21T08:11:57;16.67;;;14.98;;
76731;SDS011;65656;51.130;13.658;2023-03-21T08:15:58;15.48;;;12.05;;
76731;SDS011;65656;51.130;13.658;2023-03-21T08:20:01;15.00;;;10.73;;
76731;SDS011;65656;51.130;13.658;2023-03-21T08:24:02;13.95;;;12.13;;
76731;SDS011;65656;51.130;13.658;2023-03-21T08:28:04;15.57;;;11.63;;
76731;SDS011;65656;51.130;13.658;2023-03-21T08:32:05;15.32;;;13.05;;
76731;SDS011;65656;51.130;13.658;2023-03-21T08:36:09;13.20;;;11.40;;
76731;SDS011;65656;51.130;13.658;2023-03-21T08:40:12;14.32;;;10.80;;
76731;SDS011;65656;51.130;13.658;2023-03-21T08:44:14;13.75;;;10.25;;
76731;SDS011;65656;51.130;13.658;2023-03-21T08:48:16;12.45;;;11.25;;
76731;SDS011;65656;51.130;13.658;2023-03-21T08:52:19;10.63;;;9.55;;
76731;SDS011;65656;51.130;13.658;2023-03-21T08:56:20;14.60;;;13.25;;
76731;SDS011;65656;51.130;13.658;2023-03-21T09:00:22;13.98;;;12.77;;
76731;SDS011;65656;51.130;13.658;2023-03-21T09:04:23;10.25;;;9.32;;
76731;SDS011;65656;51.130;13.658;2023-03-21T09:08:26;14.77;;;10.40;;
76731;SDS011;65656;51.130;13.658;2023-03-21T09:12:28;10.88;;;8.88;;
76731;SDS011;65656;51.130;13.658;2023-03-21T09:16:29;11.50;;;9.75;;
76731;SDS011;65656;51.130;13.658;2023-03-21T09:20:31;11.60;;;10.43;;
76731;SDS011;65656;51.130;13.658;2023-03-21T09:24:34;12.68;;;9.30;;
76731;SDS011;65656;51.130;13.658;2023-03-21T09:28:36;12.70;;;9.50;;
76731;SDS011;65656;51.130;13.658;2023-03-21T09:32:37;9.88;;;8.23;;
76731;SDS011;65656;51.130;13.658;2023-03-21T09:36:39;10.02;;;8.68;;
76731;SDS011;65656;51.130;13.658;2023-03-21T09:40:47;16.20;;;14.75;;
76731;SDS011;65656;51.130;13.658;2023-03-21T09:44:59;13.00;;;11.65;;
76731;SDS011;65656;51.130;13.658;2023-03-21T09:49:09;12.48;;;8.73;;
76731;SDS011;65656;51.130;13.658;2023-03-21T09:53:17;13.10;;;11.98;;
76731;SDS011;65656;51.130;13.658;2023-03-21T09:57:26;9.82;;;8.80;;
76731;SDS011;65656;51.130;13.658;2023-03-21T10:01:31;21.20;;;19.50;;
76731;SDS011;65656;51.130;13.658;2023-03-21T10:05:33;9.30;;;7.43;;
76731;SDS011;65656;51.130;13.658;2023-03-21T10:09:38;14.15;;;11.30;;
76731;SDS011;65656;51.130;13.658;2023-03-21T10:13:43;13.13;;;9.63;;
76731;SDS011;65656;51.130;13.658;2023-03-21T10:17:54;13.40;;;7.97;;
76731;SDS011;65656;51.130;13.658;2023-03-21T10:21:59;9.52;;;8.23;;
76731;SDS011;65656;51.130;13.658;2023-03-21T10:26:04;9.55;;;6.80;;
76731;SDS011;65656;51.130;13.658;2023-03-21T10:30:11;11.88;;;7.22;;
76731;SDS011;65656;51.130;13.658;2023-03-21T10:34:23;12.70;;;11.68;;
76731;SDS011;65656;51.130;13.658;2023-03-21T10:38:30;10.48;;;6.53;;
76731;SDS011;65656;51.130;13.658;2023-03-21T10:42:31;9.15;;;6.72;;
76731;SDS011;65656;51.130;13.658;2023-03-21T10:46:35;8.48;;;7.60;;
76731;SDS011;65656;51.130;13.658;2023-03-21T10:50:37;9.07;;;6.57;;
76731;SDS011;65656;51.130;13.658;2023-03-21T10:54:38;12.38;;;11.10;;
76731;SDS011;65656;51.130;13.658;2023-03-21T10:58:41;8.98;;;6.20;;
76731;SDS011;65656;51.130;13.658;2023-03-21T11:02:47;12.07;;;10.40;;
76731;SDS011;65656;51.130;13.658;2023-03-21T11:06:51;11.02;;;8.00;;
76731;SDS011;65656;51.130;13.658;2023-03-21T11:10:58;9.43;;;7.97;;
76731;SDS011;65656;51.130;13.658;2023-03-21T11:15:13;12.98;;;11.93;;
76731;SDS011;65656;51.130;13.658;2023-03-21T11:19:30;11.68;;;10.50;;
76731;SDS011;65656;51.130;13.658;2023-03-21T11:23:33;15.45;;;14.15;;
76731;SDS011;65656;51.130;13.658;2023-03-21T11:31:47;10.75;;;9.73;;
76731;SDS011;65656;51.130;13.658;2023-03-21T11:36:00;9.07;;;8.07;;
76731;SDS011;65656;51.130;13.658;2023-03-21T11:40:05;8.27;;;7.55;;
76731;SDS011;65656;51.130;13.658;2023-03-21T11:44:24;8.02;;;6.95;;
76731;SDS011;65656;51.130;13.658;2023-03-21T11:48:27;9.40;;;8.50;;
76731;SDS011;65656;51.130;13.658;2023-03-21T11:52:33;8.20;;;7.38;;
76731;SDS011;65656;51.130;13.658;2023-03-21T11:56:39;11.32;;;9.65;;
76731;SDS011;65656;51.130;13.658;2023-03-21T12:00:46;9.70;;;8.98;;
76731;SDS011;65656;51.130;13.658;2023-03-21T12:04:52;13.25;;;12.35;;
76731;SDS011;65656;51.130;13.658;2023-03-21T12:09:01;8.30;;;7.50;;
76731;SDS011;65656;51.130;13.658;2023-03-21T12:13:13;7.00;;;6.32;;
76731;SDS011;65656;51.130;13.658;2023-03-21T12:17:35;7.88;;;7.18;;
76731;SDS011;65656;51.130;13.658;2023-03-21T12:21:51;7.15;;;6.43;;
76731;SDS011;65656;51.130;13.658;2023-03-21T12:26:07;7.88;;;7.15;;
76731;SDS011;65656;51.130;13.658;2023-03-21T12:30:23;8.50;;;6.15;;
76731;SDS011;65656;51.130;13.658;2023-03-21T12:34:50;9.02;;;8.20;;
76731;SDS011;65656;51.130;13.658;2023-03-21T12:39:12;7.00;;;5.85;;
76731;SDS011;65656;51.130;13.658;2023-03-21T12:43:27;8.20;;;7.45;;
76731;SDS011;65656;51.130;13.658;2023-03-21T12:47:42;9.10;;;8.40;;
76731;SDS011;65656;51.130;13.658;2023-03-21T12:51:48;10.52;;;9.52;;
76731;SDS011;65656;51.130;13.658;2023-03-21T12:55:55;7.00;;;6.40;;
76731;SDS011;65656;51.130;13.658;2023-03-21T13:00:04;11.77;;;11.00;;
76731;SDS011;65656;51.130;13.658;2023-03-21T13:04:20;7.05;;;5.68;;
76731;SDS011;65656;51.130;13.658;2023-03-21T13:08:33;9.68;;;8.93;;
76731;SDS011;65656;51.130;13.658;2023-03-21T13:12:47;6.28;;;5.68;;
76731;SDS011;65656;51.130;13.658;2023-03-21T13:16:59;8.85;;;8.13;;
76731;SDS011;65656;51.130;13.658;2023-03-21T13:21:09;7.63;;;5.72;;
76731;SDS011;65656;51.130;13.658;2023-03-21T13:25:16;7.00;;;6.47;;
76731;SDS011;65656;51.130;13.658;2023-03-21T13:29:21;7.13;;;6.50;;
76731;SDS011;65656;51.130;13.658;2023-03-21T13:33:27;6.80;;;6.30;;
76731;SDS011;65656;51.130;13.658;2023-03-21T13:37:30;4.85;;;4.45;;
76731;SDS011;65656;51.130;13.658;2023-03-21T13:41:34;4.95;;;4.03;;
76731;SDS011;65656;51.130;13.658;2023-03-21T13:45:43;6.18;;;5.05;;
76731;SDS011;65656;51.130;13.658;2023-03-21T13:49:47;5.50;;;4.63;;
76731;SDS011;65656;51.130;13.658;2023-03-21T13:54:23;6.13;;;5.55;;
76731;SDS011;65656;51.130;13.658;2023-03-21T13:58:32;5.55;;;4.97;;
76731;SDS011;65656;51.130;13.658;2023-03-21T14:02:35;5.32;;;4.28;;
76731;SDS011;65656;51.130;13.658;2023-03-21T14:06:45;4.35;;;3.70;;
76731;SDS011;65656;51.130;13.658;2023-03-21T14:10:52;6.90;;;4.15;;
76731;SDS011;65656;51.130;13.658;2023-03-21T14:14:59;5.28;;;3.90;;
76731;SDS011;65656;51.130;13.658;2023-03-21T14:19:17;5.45;;;5.03;;
76731;SDS011;65656;51.130;13.658;2023-03-21T14:23:20;3.65;;;3.35;;
76731;SDS011;65656;51.130;13.658;2023-03-21T14:27:23;5.68;;;3.22;;
76731;SDS011;65656;51.130;13.658;2023-03-21T14:31:29;5.45;;;3.53;;
76731;SDS011;65656;51.130;13.658;2023-03-21T14:35:32;5.00;;;4.00;;
76731;SDS011;65656;51.130;13.658;2023-03-21T14:39:35;5.53;;;4.40;;
76731;SDS011;65656;51.130;13.658;2023-03-21T14:43:36;10.05;;;9.25;;
76731;SDS011;65656;51.130;13.658;2023-03-21T14:47:38;6.18;;;5.68;;
76731;SDS011;65656;51.130;13.658;2023-03-21T14:51:39;4.47;;;4.07;;
76731;SDS011;65656;51.130;13.658;2023-03-21T14:55:43;4.60;;;3.75;;
76731;SDS011;65656;51.130;13.658;2023-03-21T14:59:49;3.80;;;3.20;;
76731;SDS011;65656;51.130;13.658;2023-03-21T15:03:52;4.75;;;3.40;;
76731;SDS011;65656;51.130;13.658;2023-03-21T15:07:55;6.50;;;3.40;;
76731;SDS011;65656;51.130;13.658;2023-03-21T15:11:59;5.85;;;5.35;;
76731;SDS011;65656;51.130;13.658;2023-03-21T15:16:07;5.25;;;4.72;;
76731;SDS011;65656;51.130;13.658;2023-03-21T15:20:12;6.22;;;5.63;;
76731;SDS011;65656;51.130;13.658;2023-03-21T15:24:15;5.32;;;4.80;;
76731;SDS011;65656;51.130;13.658;2023-03-21T15:28:21;11.07;;;10.38;;
76731;SDS011;65656;51.130;13.658;2023-03-21T15:32:26;6.78;;;5.82;;
76731;SDS011;65656;51.130;13.658;2023-03-21T15:36:32;7.50;;;6.78;;
76731;SDS011;65656;51.130;13.658;2023-03-21T15:40:34;7.88;;;5.63;;
76731;SDS011;65656;51.130;13.658;2023-03-21T15:44:37;5.68;;;3.95;;
76731;SDS011;65656;51.130;13.658;2023-03-21T15:48:45;7.18;;;6.60;;
76731;SDS011;65656;51.130;13.658;2023-03-21T15:52:47;4.57;;;3.90;;
76731;SDS011;65656;51.130;13.658;2023-03-21T15:56:51;5.28;;;3.78;;
76731;SDS011;65656;51.130;13.658;2023-03-21T16:00:55;7.90;;;7.28;;
76731;SDS011;65656;51.130;13.658;2023-03-21T16:05:16;6.10;;;5.60;;
76731;SDS011;65656;51.130;13.658;2023-03-21T16:09:22;5.43;;;4.70;;
76731;SDS011;65656;51.130;13.658;2023-03-21T16:13:24;6.43;;;5.93;;
76731;SDS011;65656;51.130;13.658;2023-03-21T16:17:30;7.05;;;6.40;;
76731;SDS011;65656;51.130;13.658;2023-03-21T16:21:33;6.45;;;5.95;;
76731;SDS011;65656;51.130;13.658;2023-03-21T16:25:35;5.88;;;5.38;;
76731;SDS011;65656;51.130;13.658;2023-03-21T16:29:36;11.93;;;11.15;;
76731;SDS011;65656;51.130;13.658;2023-03-21T16:33:39;5.05;;;4.45;;
76731;SDS011;65656;51.130;13.658;2023-03-21T16:37:41;6.85;;;6.25;;
76731;SDS011;65656;51.130;13.658;2023-03-21T16:41:43;6.93;;;6.30;;
76731;SDS011;65656;51.130;13.658;2023-03-21T16:45:44;7.07;;;6.47;;
76731;SDS011;65656;51.130;13.658;2023-03-21T16:49:47;8.07;;;7.38;;
76731;SDS011;65656;51.130;13.658;2023-03-21T16:53:49;6.35;;;4.30;;
76731;SDS011;65656;51.130;13.658;2023-03-21T16:57:50;5.75;;;4.65;;
76731;SDS011;65656;51.130;13.658;2023-03-21T17:01:53;6.95;;;5.55;;
76731;SDS011;65656;51.130;13.658;2023-03-21T17:05:55;7.47;;;6.75;;
76731;SDS011;65656;51.130;13.658;2023-03-21T17:09:57;5.28;;;4.50;;
76731;SDS011;65656;51.130;13.658;2023-03-21T17:13:58;5.18;;;3.65;;
76731;SDS011;65656;51.130;13.658;2023-03-21T17:18:00;5.55;;;5.13;;
76731;SDS011;65656;51.130;13.658;2023-03-21T17:22:03;9.48;;;8.75;;
76731;SDS011;65656;51.130;13.658;2023-03-21T17:26:04;6.50;;;5.90;;
76731;SDS011;65656;51.130;13.658;2023-03-21T17:30:10;11.52;;;10.73;;
76731;SDS011;65656;51.130;13.658;2023-03-21T17:34:19;10.25;;;9.52;;
76731;SDS011;65656;51.130;13.658;2023-03-21T17:38:22;9.60;;;8.98;;
76731;SDS011;65656;51.130;13.658;2023-03-21T17:42:23;6.43;;;5.88;;
76731;SDS011;65656;51.130;13.658;2023-03-21T17:46:25;5.68;;;5.07;;
76731;SDS011;65656;51.130;13.658;2023-03-21T17:50:30;6.60;;;6.00;;
76731;SDS011;65656;51.130;13.658;2023-03-21T17:54:34;7.38;;;6.75;;
76731;SDS011;65656;51.130;13.658;2023-03-21T17:58:35;5.65;;;4.78;;
76731;SDS011;65656;51.130;13.658;2023-03-21T18:02:37;6.85;;;6.25;;
76731;SDS011;65656;51.130;13.658;2023-03-21T18:06:39;10.95;;;9.88;;
76731;SDS011;65656;51.130;13.658;2023-03-21T18:10:42;9.10;;;8.40;;
76731;SDS011;65656;51.130;13.658;2023-03-21T18:14:43;7.30;;;6.55;;
76731;SDS011;65656;51.130;13.658;2023-03-21T18:18:45;5.55;;;5.05;;
76731;SDS011;65656;51.130;13.658;2023-03-21T18:22:47;7.63;;;7.03;;
76731;SDS011;65656;51.130;13.658;2023-03-21T18:26:50;10.10;;;9.30;;
76731;SDS011;65656;51.130;13.658;2023-03-21T18:30:51;10.23;;;9.15;;
76731;SDS011;65656;51.130;13.658;2023-03-21T18:35:13;9.93;;;8.93;;
76731;SDS011;65656;51.130;13.658;2023-03-21T18:39:16;9.77;;;8.88;;
76731;SDS011;65656;51.130;13.658;2023-03-21T18:43:19;11.18;;;10.35;;
76731;SDS011;65656;51.130;13.658;2023-03-21T18:47:40;9.52;;;8.63;;
76731;SDS011;65656;51.130;13.658;2023-03-21T18:51:42;12.32;;;11.20;;
76731;SDS011;65656;51.130;13.658;2023-03-21T18:55:43;8.82;;;7.93;;
76731;SDS011;65656;51.130;13.658;2023-03-21T18:59:48;7.72;;;7.03;;
76731;SDS011;65656;51.130;13.658;2023-03-21T19:03:50;14.70;;;13.63;;
76731;SDS011;65656;51.130;13.658;2023-03-21T19:08:11;14.32;;;13.23;;
76731;SDS011;65656;51.130;13.658;2023-03-21T19:12:13;11.45;;;10.38;;
76731;SDS011;65656;51.130;13.658;2023-03-21T19:16:16;9.30;;;8.50;;
76731;SDS011;65656;51.130;13.658;2023-03-21T19:20:18;10.75;;;9.77;;
76731;SDS011;65656;51.130;13.658;2023-03-21T19:24:20;9.10;;;8.20;;
76731;SDS011;65656;51.130;13.658;2023-03-21T19:28:28;12.27;;;10.60;;
76731;SDS011;65656;51.130;13.658;2023-03-21T19:32:31;13.65;;;12.52;;
76731;SDS011;65656;51.130;13.658;2023-03-21T19:36:33;8.95;;;8.13;;
76731;SDS011;65656;51.130;13.658;2023-03-21T19:40:35;8.30;;;7.43;;
76731;SDS011;65656;51.130;13.658;2023-03-21T19:44:39;8.15;;;7.28;;
76731;SDS011;65656;51.130;13.658;2023-03-21T19:48:42;10.38;;;9.57;;
76731;SDS011;65656;51.130;13.658;2023-03-21T19:52:45;7.25;;;6.30;;
76731;SDS011;65656;51.130;13.658;2023-03-21T19:56:46;7.05;;;6.15;;
76731;SDS011;65656;51.130;13.658;2023-03-21T20:00:48;14.70;;;8.95;;
76731;SDS011;65656;51.130;13.658;2023-03-21T20:04:51;12.57;;;11.57;;
76731;SDS011;65656;51.130;13.658;2023-03-21T20:08:53;10.60;;;9.82;;
76731;SDS011;65656;51.130;13.658;2023-03-21T20:13:14;13.10;;;12.02;;
76731;SDS011;65656;51.130;13.658;2023-03-21T20:17:16;11.55;;;10.43;;
76731;SDS011;65656;51.130;13.658;2023-03-21T20:21:19;10.88;;;9.98;;
76731;SDS011;65656;51.130;13.658;2023-03-21T20:25:26;10.60;;;9.68;;
76731;SDS011;65656;51.130;13.658;2023-03-21T20:29:27;10.13;;;8.98;;
76731;SDS011;65656;51.130;13.658;2023-03-21T20:33:49;13.85;;;12.60;;
76731;SDS011;65656;51.130;13.658;2023-03-21T20:37:52;12.95;;;11.40;;
76731;SDS011;65656;51.130;13.658;2023-03-21T20:41:53;8.90;;;8.00;;
76731;SDS011;65656;51.130;13.658;2023-03-21T20:45:58;13.38;;;12.25;;
76731;SDS011;65656;51.130;13.658;2023-03-21T20:50:00;11.70;;;10.38;;
76731;SDS011;65656;51.130;13.658;2023-03-21T20:54:03;10.07;;;7.93;;
76731;SDS011;65656;51.130;13.658;2023-03-21T20:58:05;10.07;;;8.20;;
76731;SDS011;65656;51.130;13.658;2023-03-21T21:02:26;9.35;;;7.72;;
76731;SDS011;65656;51.130;13.658;2023-03-21T21:06:28;8.77;;;7.97;;
76731;SDS011;65656;51.130;13.658;2023-03-21T21:10:30;9.40;;;8.18;;
76731;SDS011;65656;51.130;13.658;2023-03-21T21:14:34;9.10;;;8.20;;
76731;SDS011;65656;51.130;13.658;2023-03-21T21:18:36;15.02;;;13.60;;
76731;SDS011;65656;51.130;13.658;2023-03-21T21:22:38;11.25;;;7.97;;
76731;SDS011;65656;51.130;13.658;2023-03-21T21:26:42;10.77;;;9.77;;
76731;SDS011;65656;51.130;13.658;2023-03-21T21:30:44;13.10;;;8.35;;
76731;SDS011;65656;51.130;13.658;2023-03-21T21:34:45;8.82;;;7.35;;
76731;SDS011;65656;51.130;13.658;2023-03-21T21:38:47;10.60;;;8.25;;
76731;SDS011;65656;51.130;13.658;2023-03-21T21:42:50;9.82;;;6.50;;
76731;SDS011;65656;51.130;13.658;2023-03-21T21:46:51;10.93;;;9.88;;
76731;SDS011;65656;51.130;13.658;2023-03-21T21:50:53;11.43;;;10.30;;
76731;SDS011;65656;51.130;13.658;2023-03-21T21:54:54;13.32;;;8.93;;
76731;SDS011;65656;51.130;13.658;2023-03-21T21:58:57;13.68;;;12.43;;
76731;SDS011;65656;51.130;13.658;2023-03-21T22:02:59;17.77;;;16.48;;
76731;SDS011;65656;51.130;13.658;2023-03-21T22:07:01;13.52;;;9.55;;
76731;SDS011;65656;51.130;13.658;2023-03-21T22:11:04;12.82;;;11.00;;
76731;SDS011;65656;51.130;13.658;2023-03-21T22:15:07;12.73;;;11.43;;
76731;SDS011;65656;51.130;13.658;2023-03-21T22:19:10;13.98;;;10.32;;
76731;SDS011;65656;51.130;13.658;2023-03-21T22:23:11;14.40;;;13.20;;
76731;SDS011;65656;51.130;13.658;2023-03-21T22:27:13;12.73;;;11.40;;
76731;SDS011;65656;51.130;13.658;2023-03-21T22:31:15;15.65;;;11.23;;
76731;SDS011;65656;51.130;13.658;2023-03-21T22:35:17;12.32;;;11.13;;
76731;SDS011;65656;51.130;13.658;2023-03-21T22:39:19;31.17;;;28.80;;
76731;SDS011;65656;51.130;13.658;2023-03-21T22:43:21;15.27;;;10.75;;
76731;SDS011;65656;51.130;13.658;2023-03-21T22:47:24;18.13;;;16.42;;
76731;SDS011;65656;51.130;13.658;2023-03-21T22:51:25;15.38;;;13.80;;
76731;SDS011;65656;51.130;13.658;2023-03-21T22:55:27;25.88;;;23.90;;
76731;SDS011;65656;51.130;13.658;2023-03-21T22:59:28;14.60;;;12.40;;
76731;SDS011;65656;51.130;13.658;2023-03-21T23:03:31;12.13;;;10.88;;
76731;SDS011;65656;51.130;13.658;2023-03-21T23:07:33;14.95;;;13.45;;
76731;SDS011;65656;51.130;13.658;2023-03-21T23:11:34;18.65;;;13.27;;
76731;SDS011;65656;51.130;13.658;2023-03-21T23:15:36;13.35;;;12.23;;
76731;SDS011;65656;51.130;13.658;2023-03-21T23:19:39;14.40;;;13.15;;
76731;SDS011;65656;51.130;13.658;2023-03-21T23:23:41;12.23;;;10.95;;
76731;SDS011;65656;51.130;13.658;2023-03-21T23:27:44;12.10;;;10.88;;
76731;SDS011;65656;51.130;13.658;2023-03-21T23:31:45;14.93;;;13.38;;
76731;SDS011;65656;51.130;13.658;2023-03-21T23:35:48;10.35;;;9.25;;
76731;SDS011;65656;51.130;13.658;2023-03-21T23:43:58;12.27;;;11.15;;
76731;SDS011;65656;51.130;13.658;2023-03-21T23:48:00;13.10;;;11.80;;
76731;SDS011;65656;51.130;13.658;2023-03-21T23:52:03;12.93;;;11.57;;
76731;SDS011;65656;51.130;13.658;2023-03-21T23:56:08;18.42;;;16.88;;
